createdAt,value
2019-03-29T00:00:16.591Z,3.72
2019-03-29T00:01:16.623Z,3.62
2019-03-29T00:02:17.072Z,3.62
2019-03-29T00:03:16.584Z,3.65
2019-03-29T00:04:16.896Z,3.57
2019-03-29T00:05:17.186Z,3.55
2019-03-29T00:06:16.475Z,3.55
2019-03-29T00:07:16.787Z,3.64
2019-03-29T00:08:17.112Z,3.62
2019-03-29T00:09:16.408Z,3.58
2019-03-29T00:10:16.731Z,3.51
2019-03-29T00:11:16.788Z,3.33
2019-03-29T00:12:17.127Z,3.33
2019-03-29T00:13:16.463Z,3.26
2019-03-29T00:14:16.765Z,3.22
2019-03-29T00:15:17.062Z,3.24
2019-03-29T00:16:16.373Z,3.27
2019-03-29T00:17:17.914Z,3.26
2019-03-29T00:18:16.589Z,3.20
2019-03-29T00:19:16.908Z,3.20
2019-03-29T00:20:17.240Z,3.10
2019-03-29T00:21:16.273Z,3.12
2019-03-29T00:22:16.577Z,3.16
2019-03-29T00:23:16.872Z,3.19
2019-03-29T00:24:17.184Z,3.16
2019-03-29T00:25:16.485Z,3.14
2019-03-29T00:26:16.808Z,3.14
2019-03-29T00:27:17.114Z,3.12
2019-03-29T00:28:16.403Z,3.14
2019-03-29T00:29:16.720Z,3.12
2019-03-29T00:30:17.022Z,3.12
2019-03-29T00:31:17.193Z,3.14
2019-03-29T00:32:16.518Z,3.24
2019-03-29T00:33:16.794Z,3.36
2019-03-29T00:34:17.119Z,3.39
2019-03-29T00:35:16.431Z,3.34
2019-03-29T00:36:16.726Z,3.27
2019-03-29T00:37:17.299Z,3.26
2019-03-29T00:38:16.551Z,3.24
2019-03-29T00:39:16.859Z,3.40
2019-03-29T00:40:17.155Z,3.40
2019-03-29T00:41:16.252Z,3.43
2019-03-29T00:42:17.101Z,3.39
2019-03-29T00:43:16.648Z,3.44
2019-03-29T00:44:17.011Z,3.40
2019-03-29T00:45:16.307Z,3.44
2019-03-29T00:46:16.602Z,3.39
2019-03-29T00:47:16.917Z,3.43
2019-03-29T00:48:17.241Z,3.47
2019-03-29T00:49:16.545Z,3.44
2019-03-29T00:50:16.880Z,3.41
2019-03-29T00:51:16.918Z,3.41
2019-03-29T00:52:16.903Z,3.34
2019-03-29T00:53:16.395Z,3.26
2019-03-29T00:54:16.667Z,3.33
2019-03-29T00:55:16.986Z,3.33
2019-03-29T00:56:16.285Z,3.24
2019-03-29T00:57:16.600Z,3.26
2019-03-29T00:58:16.908Z,3.20
2019-03-29T00:59:16.257Z,3.17
2019-03-29T01:00:16.564Z,3.24
2019-03-29T01:01:16.653Z,3.27
2019-03-29T01:02:16.948Z,3.27
2019-03-29T01:03:16.218Z,3.23
2019-03-29T01:04:16.560Z,3.26
2019-03-29T01:05:16.886Z,3.26
2019-03-29T01:06:17.229Z,3.24
2019-03-29T01:07:16.533Z,3.31
2019-03-29T01:08:16.829Z,3.33
2019-03-29T01:09:17.150Z,3.31
2019-03-29T01:10:16.470Z,3.37
2019-03-29T01:11:16.515Z,3.33
2019-03-29T01:12:16.862Z,3.33
2019-03-29T01:13:17.167Z,3.30
2019-03-29T01:14:16.925Z,3.31
2019-03-29T01:15:16.396Z,3.30
2019-03-29T01:16:16.704Z,3.33
2019-03-29T01:17:17.000Z,3.31
2019-03-29T01:18:16.319Z,3.30
2019-03-29T01:19:16.649Z,3.24
2019-03-29T01:20:16.976Z,3.28
2019-03-29T01:21:16.996Z,3.26
2019-03-29T01:22:16.318Z,3.27
2019-03-29T01:23:16.605Z,3.28
2019-03-29T01:24:16.932Z,3.30
2019-03-29T01:25:17.215Z,3.28
2019-03-29T01:26:16.498Z,3.28
2019-03-29T01:27:16.822Z,3.31
2019-03-29T01:28:17.119Z,3.30
2019-03-29T01:29:16.432Z,3.28
2019-03-29T01:30:16.747Z,3.28
2019-03-29T01:31:16.798Z,3.31
2019-03-29T01:32:17.112Z,3.33
2019-03-29T01:33:16.425Z,3.33
2019-03-29T01:34:17.116Z,3.37
2019-03-29T01:35:16.622Z,3.39
2019-03-29T01:36:16.907Z,3.37
2019-03-29T01:37:17.212Z,3.40
2019-03-29T01:38:21.954Z,3.43
2019-03-29T01:39:17.001Z,3.44
2019-03-29T01:40:16.492Z,3.46
2019-03-29T01:41:16.547Z,3.50
2019-03-29T01:42:16.862Z,3.54
2019-03-29T01:43:17.132Z,3.54
2019-03-29T01:44:16.420Z,3.55
2019-03-29T01:45:16.714Z,3.57
2019-03-29T01:46:17.032Z,3.62
2019-03-29T01:47:16.334Z,3.65
2019-03-29T01:48:16.661Z,3.69
2019-03-29T01:49:16.950Z,3.74
2019-03-29T01:50:16.221Z,3.77
2019-03-29T01:51:16.288Z,3.82
2019-03-29T01:52:16.583Z,3.85
2019-03-29T01:53:16.902Z,3.95
2019-03-29T01:54:17.234Z,4.02
2019-03-29T01:55:16.551Z,4.02
2019-03-29T01:56:16.870Z,4.05
2019-03-29T01:57:17.185Z,4.06
2019-03-29T01:58:16.504Z,4.10
2019-03-29T01:59:17.046Z,4.12
2019-03-29T02:00:16.608Z,4.16
2019-03-29T02:01:16.649Z,4.16
2019-03-29T02:02:16.953Z,4.20
2019-03-29T02:03:16.238Z,4.23
2019-03-29T02:04:16.527Z,4.21
2019-03-29T02:05:16.820Z,4.19
2019-03-29T02:06:17.140Z,4.17
2019-03-29T02:07:16.429Z,4.20
2019-03-29T02:08:16.735Z,4.20
2019-03-29T02:09:16.242Z,4.14
2019-03-29T02:10:16.607Z,4.10
2019-03-29T02:11:16.635Z,4.12
2019-03-29T02:12:16.926Z,4.06
2019-03-29T02:13:16.234Z,4.05
2019-03-29T02:14:17.252Z,3.98
2019-03-29T02:15:16.564Z,4.00
2019-03-29T02:16:16.870Z,3.92
2019-03-29T02:17:17.219Z,3.89
2019-03-29T02:18:16.507Z,3.93
2019-03-29T02:19:16.816Z,3.92
2019-03-29T02:20:17.098Z,3.93
2019-03-29T02:21:17.249Z,3.92
2019-03-29T02:22:16.595Z,3.90
2019-03-29T02:23:16.938Z,3.92
2019-03-29T02:24:16.265Z,3.93
2019-03-29T02:25:16.547Z,3.92
2019-03-29T02:26:16.854Z,3.95
2019-03-29T02:27:17.143Z,3.99
2019-03-29T02:28:16.462Z,3.99
2019-03-29T02:29:16.802Z,4.00
2019-03-29T02:30:17.125Z,4.02
2019-03-29T02:31:17.164Z,4.05
2019-03-29T02:32:16.502Z,4.03
2019-03-29T02:33:16.813Z,4.06
2019-03-29T02:34:17.093Z,4.10
2019-03-29T02:35:16.434Z,4.10
2019-03-29T02:36:16.731Z,4.13
2019-03-29T02:37:17.035Z,4.16
2019-03-29T02:38:16.326Z,4.16
2019-03-29T02:39:16.652Z,4.17
2019-03-29T02:40:17.029Z,4.17
2019-03-29T02:41:18.913Z,4.20
2019-03-29T02:42:16.951Z,4.21
2019-03-29T02:43:16.236Z,4.23
2019-03-29T02:44:16.536Z,4.24
2019-03-29T02:45:16.857Z,4.27
2019-03-29T02:46:17.160Z,4.28
2019-03-29T02:47:16.479Z,4.33
2019-03-29T02:48:17.318Z,4.30
2019-03-29T02:49:16.706Z,4.36
2019-03-29T02:50:17.060Z,4.34
2019-03-29T02:51:17.083Z,4.36
2019-03-29T02:52:16.367Z,4.37
2019-03-29T02:53:16.697Z,4.38
2019-03-29T02:54:17.024Z,4.37
2019-03-29T02:55:16.362Z,4.40
2019-03-29T02:56:16.659Z,4.40
2019-03-29T02:57:16.971Z,4.43
2019-03-29T02:58:16.331Z,4.43
2019-03-29T02:59:16.643Z,4.41
2019-03-29T03:00:16.999Z,4.43
2019-03-29T03:01:17.015Z,4.46
2019-03-29T03:02:16.301Z,4.44
2019-03-29T03:03:16.612Z,4.47
2019-03-29T03:04:16.966Z,4.46
2019-03-29T03:05:16.257Z,4.48
2019-03-29T03:06:16.566Z,4.48
2019-03-29T03:07:16.898Z,4.51
2019-03-29T03:08:16.239Z,4.51
2019-03-29T03:09:16.517Z,4.55
2019-03-29T03:10:16.803Z,4.60
2019-03-29T03:11:16.855Z,4.61
2019-03-29T03:12:17.219Z,4.63
2019-03-29T03:13:16.563Z,4.64
2019-03-29T03:14:16.852Z,4.68
2019-03-29T03:15:17.166Z,4.68
2019-03-29T03:16:16.471Z,4.71
2019-03-29T03:17:16.814Z,4.71
2019-03-29T03:18:17.177Z,4.75
2019-03-29T03:19:16.539Z,4.72
2019-03-29T03:20:16.883Z,4.78
2019-03-29T03:21:16.919Z,4.79
2019-03-29T03:22:16.235Z,4.79
2019-03-29T03:23:16.521Z,4.79
2019-03-29T03:24:16.858Z,4.82
2019-03-29T03:25:17.210Z,4.84
2019-03-29T03:26:16.512Z,4.82
2019-03-29T03:27:16.838Z,4.85
2019-03-29T03:28:17.139Z,4.84
2019-03-29T03:29:16.508Z,4.81
2019-03-29T03:30:16.930Z,4.84
2019-03-29T03:31:16.962Z,4.84
2019-03-29T03:32:16.273Z,4.84
2019-03-29T03:33:16.847Z,4.85
2019-03-29T03:34:17.218Z,4.84
2019-03-29T03:35:16.604Z,4.81
2019-03-29T03:36:17.047Z,4.82
2019-03-29T03:37:16.355Z,4.81
2019-03-29T03:38:16.752Z,4.81
2019-03-29T03:39:30.458Z,4.79
2019-03-29T03:40:16.645Z,4.84
2019-03-29T03:41:16.688Z,4.84
2019-03-29T03:42:16.994Z,4.79
2019-03-29T03:43:16.300Z,4.84
2019-03-29T03:44:16.647Z,4.85
2019-03-29T03:45:17.193Z,4.85
2019-03-29T03:46:16.534Z,4.86
2019-03-29T03:47:16.820Z,4.86
2019-03-29T03:48:17.130Z,4.84
2019-03-29T03:49:16.418Z,4.84
2019-03-29T03:50:16.767Z,4.85
2019-03-29T03:51:16.822Z,4.84
2019-03-29T03:52:17.126Z,4.85
2019-03-29T03:53:16.443Z,4.84
2019-03-29T03:54:16.759Z,4.86
2019-03-29T03:55:17.043Z,4.85
2019-03-29T03:56:16.341Z,4.86
2019-03-29T03:57:16.664Z,4.85
2019-03-29T03:58:16.966Z,4.85
2019-03-29T03:59:16.295Z,4.85
2019-03-29T04:00:16.626Z,4.89
2019-03-29T04:01:16.695Z,4.86
2019-03-29T04:02:17.019Z,4.88
2019-03-29T04:03:16.370Z,4.92
2019-03-29T04:04:16.675Z,4.92
2019-03-29T04:05:17.006Z,4.93
2019-03-29T04:06:16.308Z,4.98
2019-03-29T04:07:16.632Z,4.96
2019-03-29T04:08:16.960Z,4.98
2019-03-29T04:09:16.283Z,4.96
2019-03-29T04:10:16.594Z,4.98
2019-03-29T04:11:16.649Z,4.99
2019-03-29T04:12:16.938Z,5.03
2019-03-29T04:13:16.276Z,5.02
2019-03-29T04:14:16.591Z,5.06
2019-03-29T04:15:16.946Z,5.09
2019-03-29T04:16:16.243Z,5.06
2019-03-29T04:17:16.566Z,5.09
2019-03-29T04:18:16.950Z,5.07
2019-03-29T04:19:16.297Z,5.13
2019-03-29T04:20:16.628Z,5.13
2019-03-29T04:21:16.670Z,5.14
2019-03-29T04:22:16.981Z,5.19
2019-03-29T04:23:16.303Z,5.20
2019-03-29T04:24:16.614Z,5.24
2019-03-29T04:25:16.920Z,5.27
2019-03-29T04:26:17.225Z,5.33
2019-03-29T04:27:16.632Z,5.30
2019-03-29T04:28:16.948Z,5.30
2019-03-29T04:29:16.258Z,5.28
2019-03-29T04:30:16.587Z,5.27
2019-03-29T04:31:16.663Z,5.28
2019-03-29T04:32:16.979Z,5.31
2019-03-29T04:33:16.264Z,5.31
2019-03-29T04:34:16.594Z,5.31
2019-03-29T04:35:16.889Z,5.30
2019-03-29T04:36:17.221Z,5.31
2019-03-29T04:37:16.539Z,5.35
2019-03-29T04:38:16.828Z,5.34
2019-03-29T04:39:17.126Z,5.37
2019-03-29T04:40:16.449Z,5.35
2019-03-29T04:41:16.498Z,5.37
2019-03-29T04:42:16.827Z,5.37
2019-03-29T04:43:17.119Z,5.38
2019-03-29T04:44:16.437Z,5.38
2019-03-29T04:45:16.767Z,5.40
2019-03-29T04:46:17.080Z,5.41
2019-03-29T04:47:16.386Z,5.41
2019-03-29T04:48:16.298Z,5.44
2019-03-29T04:49:16.589Z,5.43
2019-03-29T04:50:16.899Z,5.47
2019-03-29T04:51:16.943Z,5.44
2019-03-29T04:52:16.247Z,5.45
2019-03-29T04:53:16.539Z,5.43
2019-03-29T04:54:16.856Z,5.43
2019-03-29T04:55:17.177Z,5.47
2019-03-29T04:56:16.485Z,5.45
2019-03-29T04:57:16.775Z,5.43
2019-03-29T04:58:16.302Z,5.50
2019-03-29T04:59:16.607Z,5.45
2019-03-29T05:00:16.914Z,5.47
2019-03-29T05:01:17.410Z,5.48
2019-03-29T05:02:16.877Z,5.51
2019-03-29T05:03:17.204Z,5.47
2019-03-29T05:04:16.549Z,5.51
2019-03-29T05:05:16.887Z,5.54
2019-03-29T05:06:17.221Z,5.55
2019-03-29T05:07:16.544Z,5.57
2019-03-29T05:08:16.957Z,5.58
2019-03-29T05:09:16.262Z,5.57
2019-03-29T05:10:21.328Z,5.67
2019-03-29T05:11:16.659Z,5.67
2019-03-29T05:12:16.961Z,5.67
2019-03-29T05:13:16.244Z,5.67
2019-03-29T05:14:16.548Z,5.64
2019-03-29T05:15:16.879Z,5.74
2019-03-29T05:16:17.165Z,5.78
2019-03-29T05:17:16.489Z,5.77
2019-03-29T05:18:16.808Z,5.78
2019-03-29T05:19:17.085Z,5.78
2019-03-29T05:20:16.453Z,5.79
2019-03-29T05:21:16.420Z,5.81
2019-03-29T05:22:16.722Z,5.75
2019-03-29T05:23:17.057Z,5.75
2019-03-29T05:24:16.344Z,5.70
2019-03-29T05:25:16.658Z,5.67
2019-03-29T05:26:16.971Z,5.67
2019-03-29T05:27:16.294Z,5.65
2019-03-29T05:28:16.605Z,5.67
2019-03-29T05:29:16.912Z,5.67
2019-03-29T05:30:17.202Z,5.67
2019-03-29T05:31:16.268Z,5.67
2019-03-29T05:32:16.563Z,5.64
2019-03-29T05:33:16.876Z,5.67
2019-03-29T05:34:17.197Z,5.70
2019-03-29T05:35:16.527Z,5.67
2019-03-29T05:36:16.930Z,5.68
2019-03-29T05:37:16.253Z,5.64
2019-03-29T05:38:16.593Z,5.55
2019-03-29T05:39:16.892Z,5.58
2019-03-29T05:40:17.194Z,5.58
2019-03-29T05:41:16.249Z,5.52
2019-03-29T05:42:16.575Z,5.52
2019-03-29T05:43:16.867Z,5.55
2019-03-29T05:44:17.150Z,5.51
2019-03-29T05:45:16.426Z,5.52
2019-03-29T05:46:16.728Z,5.50
2019-03-29T05:47:17.030Z,5.70
2019-03-29T05:48:16.349Z,5.68
2019-03-29T05:49:16.673Z,5.58
2019-03-29T05:50:16.981Z,5.58
2019-03-29T05:51:17.030Z,5.55
2019-03-29T05:52:16.334Z,5.55
2019-03-29T05:53:16.637Z,5.51
2019-03-29T05:54:16.982Z,5.52
2019-03-29T05:55:16.319Z,5.51
2019-03-29T05:56:16.595Z,5.50
2019-03-29T05:57:16.886Z,5.47
2019-03-29T05:58:17.182Z,5.48
2019-03-29T05:59:16.509Z,5.47
2019-03-29T06:00:16.799Z,5.48
2019-03-29T06:01:16.831Z,5.45
2019-03-29T06:02:17.173Z,5.40
2019-03-29T06:03:16.479Z,5.43
2019-03-29T06:04:16.786Z,5.47
2019-03-29T06:05:17.073Z,5.43
2019-03-29T06:06:16.402Z,5.38
2019-03-29T06:07:16.733Z,5.40
2019-03-29T06:08:17.038Z,5.40
2019-03-29T06:09:16.335Z,5.40
2019-03-29T06:10:16.647Z,5.45
2019-03-29T06:11:16.690Z,5.43
2019-03-29T06:12:16.988Z,5.67
2019-03-29T06:13:16.293Z,5.62
2019-03-29T06:14:16.619Z,5.64
2019-03-29T06:15:16.913Z,5.71
2019-03-29T06:16:17.221Z,5.70
2019-03-29T06:17:16.768Z,5.70
2019-03-29T06:18:17.082Z,5.81
2019-03-29T06:19:16.368Z,5.78
2019-03-29T06:20:16.639Z,5.75
2019-03-29T06:21:16.723Z,5.75
2019-03-29T06:22:17.019Z,6.00
2019-03-29T06:23:16.489Z,6.10
2019-03-29T06:24:16.799Z,6.24
2019-03-29T06:25:17.123Z,6.41
2019-03-29T06:26:16.421Z,6.44
2019-03-29T06:27:16.735Z,6.23
2019-03-29T06:28:17.009Z,6.26
2019-03-29T06:29:16.340Z,6.41
2019-03-29T06:30:16.685Z,6.44
2019-03-29T06:31:16.739Z,6.57
2019-03-29T06:32:17.060Z,6.55
2019-03-29T06:33:16.347Z,6.61
2019-03-29T06:34:16.667Z,6.49
2019-03-29T06:35:16.965Z,6.49
2019-03-29T06:36:16.298Z,6.57
2019-03-29T06:37:16.641Z,6.57
2019-03-29T06:38:16.953Z,6.58
2019-03-29T06:39:16.256Z,6.67
2019-03-29T06:40:16.589Z,6.71
2019-03-29T06:41:16.647Z,6.76
2019-03-29T06:42:17.036Z,7.19
2019-03-29T06:43:16.311Z,7.19
2019-03-29T06:44:16.607Z,7.19
2019-03-29T06:45:16.930Z,7.29
2019-03-29T06:46:17.225Z,7.31
2019-03-29T06:47:16.554Z,7.31
2019-03-29T06:48:16.857Z,7.47
2019-03-29T06:49:17.167Z,7.57
2019-03-29T06:50:16.500Z,7.45
2019-03-29T06:51:16.568Z,7.44
2019-03-29T06:52:16.846Z,7.53
2019-03-29T06:53:17.129Z,7.47
2019-03-29T06:54:16.444Z,7.54
2019-03-29T06:55:16.748Z,7.59
2019-03-29T06:56:17.082Z,7.71
2019-03-29T06:57:16.402Z,7.68
2019-03-29T06:58:16.701Z,7.81
2019-03-29T06:59:17.035Z,7.91
2019-03-29T07:00:16.348Z,7.93
2019-03-29T07:01:16.382Z,7.98
2019-03-29T07:02:16.699Z,7.91
2019-03-29T07:03:16.963Z,8.16
2019-03-29T07:04:16.294Z,8.17
2019-03-29T07:05:16.582Z,8.06
2019-03-29T07:06:16.894Z,8.21
2019-03-29T07:07:17.198Z,8.21
2019-03-29T07:08:16.511Z,8.34
2019-03-29T07:09:16.834Z,8.33
2019-03-29T07:10:17.173Z,8.29
2019-03-29T07:11:18.020Z,8.30
2019-03-29T07:12:16.560Z,8.51
2019-03-29T07:13:16.863Z,8.48
2019-03-29T07:14:17.203Z,8.57
2019-03-29T07:15:16.487Z,8.58
2019-03-29T07:16:16.792Z,8.64
2019-03-29T07:17:17.121Z,8.84
2019-03-29T07:18:16.411Z,8.79
2019-03-29T07:19:16.712Z,8.79
2019-03-29T07:20:17.107Z,8.95
2019-03-29T07:21:21.644Z,9.00
2019-03-29T07:22:16.510Z,8.99
2019-03-29T07:23:16.813Z,9.02
2019-03-29T07:24:17.113Z,9.34
2019-03-29T07:25:16.406Z,9.33
2019-03-29T07:26:16.691Z,9.29
2019-03-29T07:27:16.997Z,9.31
2019-03-29T07:28:16.291Z,9.38
2019-03-29T07:29:16.650Z,9.41
2019-03-29T07:30:16.990Z,9.41
2019-03-29T07:31:17.026Z,9.59
2019-03-29T07:32:16.336Z,9.62
2019-03-29T07:33:16.640Z,9.64
2019-03-29T07:34:16.958Z,9.64
2019-03-29T07:35:16.278Z,9.68
2019-03-29T07:36:16.614Z,9.68
2019-03-29T07:37:16.951Z,9.65
2019-03-29T07:38:16.275Z,9.72
2019-03-29T07:39:16.565Z,9.84
2019-03-29T07:40:16.889Z,9.85
2019-03-29T07:41:30.556Z,9.89
2019-03-29T07:42:16.646Z,10.02
2019-03-29T07:43:17.021Z,10.13
2019-03-29T07:44:16.339Z,10.02
2019-03-29T07:45:16.663Z,9.96
2019-03-29T07:46:16.964Z,10.10
2019-03-29T07:47:16.243Z,10.17
2019-03-29T07:48:16.578Z,10.27
2019-03-29T07:49:16.910Z,10.40
2019-03-29T07:50:18.976Z,10.29
2019-03-29T07:51:16.334Z,10.23
2019-03-29T07:52:16.645Z,10.24
2019-03-29T07:53:16.901Z,10.29
2019-03-29T07:54:16.234Z,10.29
2019-03-29T07:55:16.542Z,10.27
2019-03-29T07:56:16.851Z,10.20
2019-03-29T07:57:17.142Z,10.26
2019-03-29T07:58:16.423Z,10.23
2019-03-29T07:59:16.743Z,10.19
2019-03-29T08:00:20.106Z,10.34
2019-03-29T08:01:17.118Z,10.34
2019-03-29T08:02:16.525Z,10.33
2019-03-29T08:03:16.835Z,10.47
2019-03-29T08:04:17.204Z,10.52
2019-03-29T08:05:17.887Z,10.56
2019-03-29T08:06:16.646Z,10.45
2019-03-29T08:07:26.891Z,10.48
2019-03-29T08:08:23.639Z,10.50
2019-03-29T08:09:22.459Z,10.50
2019-03-29T08:10:24.396Z,10.56
2019-03-29T08:11:25.776Z,10.67
2019-03-29T08:12:17.037Z,10.85
2019-03-29T08:13:16.591Z,10.87
2019-03-29T08:14:16.944Z,10.84
2019-03-29T08:15:16.240Z,10.91
2019-03-29T08:16:16.557Z,10.70
2019-03-29T08:17:16.876Z,10.85
2019-03-29T08:18:17.167Z,11.03
2019-03-29T08:19:16.481Z,10.99
2019-03-29T08:20:37.948Z,10.85
2019-03-29T08:21:16.511Z,10.85
2019-03-29T08:22:16.823Z,10.87
2019-03-29T08:23:17.125Z,10.77
2019-03-29T08:24:16.442Z,10.85
2019-03-29T08:25:16.756Z,10.98
2019-03-29T08:26:17.067Z,11.05
2019-03-29T08:27:16.393Z,10.98
2019-03-29T08:28:16.693Z,10.98
2019-03-29T08:29:16.996Z,11.13
2019-03-29T08:30:16.330Z,11.23
2019-03-29T08:31:16.398Z,11.29
2019-03-29T08:32:16.721Z,11.31
2019-03-29T08:33:17.018Z,11.26
2019-03-29T08:34:16.320Z,11.34
2019-03-29T08:35:16.615Z,11.39
2019-03-29T08:36:16.916Z,11.42
2019-03-29T08:37:16.258Z,11.53
2019-03-29T08:38:16.567Z,11.49
2019-03-29T08:39:27.184Z,11.42
2019-03-29T08:40:16.788Z,11.49
2019-03-29T08:41:16.835Z,11.67
2019-03-29T08:42:18.627Z,11.65
2019-03-29T08:43:17.162Z,11.55
2019-03-29T08:44:16.455Z,11.55
2019-03-29T08:45:16.723Z,11.54
2019-03-29T08:46:16.998Z,11.67
2019-03-29T08:47:16.327Z,11.75
2019-03-29T08:48:16.595Z,11.70
2019-03-29T08:49:17.160Z,11.92
2019-03-29T08:50:16.593Z,11.99
2019-03-29T08:51:16.658Z,11.89
2019-03-29T08:52:16.947Z,11.72
2019-03-29T08:53:16.253Z,11.64
2019-03-29T08:54:16.644Z,11.57
2019-03-29T08:55:17.627Z,11.82
2019-03-29T08:56:16.276Z,11.72
2019-03-29T08:57:16.816Z,11.74
2019-03-29T08:58:17.175Z,11.72
2019-03-29T08:59:17.563Z,11.68
2019-03-29T09:00:17.176Z,11.64
2019-03-29T09:01:19.100Z,11.61
2019-03-29T09:02:17.127Z,11.67
2019-03-29T09:03:16.443Z,11.75
2019-03-29T09:04:16.719Z,12.13
2019-03-29T09:05:17.023Z,12.32
2019-03-29T09:06:16.344Z,12.47
2019-03-29T09:07:16.612Z,12.47
2019-03-29T09:08:16.938Z,12.41
2019-03-29T09:09:16.393Z,12.68
2019-03-29T09:10:16.722Z,12.85
2019-03-29T09:11:16.786Z,12.70
2019-03-29T09:12:17.073Z,12.64
2019-03-29T09:13:16.358Z,12.50
2019-03-29T09:14:16.667Z,12.71
2019-03-29T09:15:16.986Z,12.68
2019-03-29T09:16:16.279Z,12.61
2019-03-29T09:17:16.566Z,12.75
2019-03-29T09:18:16.873Z,12.50
2019-03-29T09:19:17.214Z,12.43
2019-03-29T09:20:16.543Z,12.39
2019-03-29T09:21:16.573Z,12.46
2019-03-29T09:22:16.877Z,12.60
2019-03-29T09:23:17.192Z,12.78
2019-03-29T09:24:22.081Z,12.78
2019-03-29T09:25:16.982Z,12.56
2019-03-29T09:26:16.297Z,12.72
2019-03-29T09:27:16.695Z,12.67
2019-03-29T09:28:16.997Z,12.71
2019-03-29T09:29:16.290Z,12.85
2019-03-29T09:30:16.629Z,12.79
2019-03-29T09:31:16.691Z,12.49
2019-03-29T09:32:17.038Z,12.51
2019-03-29T09:33:16.323Z,12.50
2019-03-29T09:34:16.666Z,12.35
2019-03-29T09:35:16.959Z,12.28
2019-03-29T09:36:16.257Z,12.26
2019-03-29T09:37:16.561Z,12.26
2019-03-29T09:38:16.891Z,12.44
2019-03-29T09:39:17.227Z,12.57
2019-03-29T09:40:16.529Z,12.81
2019-03-29T09:41:16.603Z,12.87
2019-03-29T09:42:28.005Z,12.94
2019-03-29T09:43:16.543Z,12.84
2019-03-29T09:44:16.853Z,13.02
2019-03-29T09:45:17.215Z,12.75
2019-03-29T09:46:16.534Z,12.85
2019-03-29T09:47:16.838Z,12.96
2019-03-29T09:48:17.107Z,12.81
2019-03-29T09:49:16.418Z,12.37
2019-03-29T09:50:16.732Z,12.56
2019-03-29T09:51:16.790Z,12.79
2019-03-29T09:52:17.078Z,12.82
2019-03-29T09:53:16.381Z,12.70
2019-03-29T09:54:18.734Z,12.58
2019-03-29T09:55:18.911Z,13.04
2019-03-29T09:56:16.594Z,12.99
2019-03-29T09:57:16.916Z,13.09
2019-03-29T09:58:16.855Z,13.16
2019-03-29T09:59:16.617Z,13.09
2019-03-29T10:00:18.984Z,13.21
2019-03-29T10:01:20.593Z,13.02
2019-03-29T10:02:16.297Z,13.14
2019-03-29T10:03:16.622Z,13.37
2019-03-29T10:04:16.939Z,13.26
2019-03-29T10:05:19.560Z,13.25
2019-03-29T10:06:16.815Z,13.30
2019-03-29T10:07:17.119Z,13.32
2019-03-29T10:08:16.496Z,13.19
2019-03-29T10:09:16.777Z,13.19
2019-03-29T10:10:17.129Z,13.14
2019-03-29T10:11:17.151Z,13.19
2019-03-29T10:12:16.484Z,13.21
2019-03-29T10:13:16.787Z,13.46
2019-03-29T10:14:17.104Z,13.57
2019-03-29T10:15:16.453Z,13.61
2019-03-29T10:16:16.767Z,13.70
2019-03-29T10:17:17.075Z,13.73
2019-03-29T10:18:16.420Z,13.26
2019-03-29T10:19:16.687Z,13.44
2019-03-29T10:20:16.998Z,13.27
2019-03-29T10:21:17.480Z,13.42
2019-03-29T10:22:17.028Z,13.82
2019-03-29T10:23:16.346Z,13.61
2019-03-29T10:24:16.660Z,13.34
2019-03-29T10:25:19.452Z,13.50
2019-03-29T10:26:16.726Z,13.76
2019-03-29T10:27:18.939Z,14.11
2019-03-29T10:28:16.588Z,13.85
2019-03-29T10:29:16.907Z,13.85
2019-03-29T10:30:17.227Z,13.94
2019-03-29T10:31:16.262Z,13.90
2019-03-29T10:32:16.582Z,13.74
2019-03-29T10:33:16.853Z,13.78
2019-03-29T10:34:17.178Z,13.53
2019-03-29T10:35:16.482Z,13.34
2019-03-29T10:36:16.785Z,13.23
2019-03-29T10:37:17.101Z,13.26
2019-03-29T10:38:18.135Z,13.65
2019-03-29T10:39:16.992Z,13.70
2019-03-29T10:40:16.298Z,13.57
2019-03-29T10:41:16.349Z,13.65
2019-03-29T10:42:16.615Z,13.65
2019-03-29T10:43:16.920Z,13.74
2019-03-29T10:44:17.205Z,13.65
2019-03-29T10:45:16.514Z,13.51
2019-03-29T10:46:16.869Z,13.51
2019-03-29T10:47:17.180Z,13.57
2019-03-29T10:48:16.493Z,13.46
2019-03-29T10:49:16.808Z,13.47
2019-03-29T10:50:17.100Z,13.71
2019-03-29T10:51:17.160Z,13.95
2019-03-29T10:52:16.471Z,14.05
2019-03-29T10:53:16.782Z,14.26
2019-03-29T10:54:17.079Z,14.01
2019-03-29T10:55:16.374Z,13.74
2019-03-29T10:56:16.722Z,13.84
2019-03-29T10:57:17.004Z,13.55
2019-03-29T10:58:16.319Z,13.27
2019-03-29T10:59:27.012Z,13.21
2019-03-29T11:00:16.387Z,13.27
2019-03-29T11:01:16.452Z,13.39
2019-03-29T11:02:16.767Z,13.26
2019-03-29T11:03:17.085Z,13.26
2019-03-29T11:04:16.366Z,13.04
2019-03-29T11:05:16.679Z,12.96
2019-03-29T11:06:17.000Z,13.01
2019-03-29T11:07:16.300Z,12.82
2019-03-29T11:08:16.624Z,12.81
2019-03-29T11:09:16.908Z,12.91
2019-03-29T11:10:16.236Z,13.02
2019-03-29T11:11:16.270Z,13.02
2019-03-29T11:12:16.606Z,13.50
2019-03-29T11:13:16.935Z,13.65
2019-03-29T11:14:16.234Z,13.70
2019-03-29T11:15:16.564Z,13.76
2019-03-29T11:16:16.848Z,13.90
2019-03-29T11:17:17.194Z,13.60
2019-03-29T11:18:16.565Z,13.26
2019-03-29T11:19:16.892Z,13.26
2019-03-29T11:20:18.717Z,13.51
2019-03-29T11:21:16.285Z,13.37
2019-03-29T11:22:16.580Z,13.81
2019-03-29T11:23:16.893Z,13.63
2019-03-29T11:24:17.185Z,13.65
2019-03-29T11:25:16.486Z,13.55
2019-03-29T11:26:16.817Z,13.64
2019-03-29T11:27:17.229Z,13.68
2019-03-29T11:28:16.550Z,13.49
2019-03-29T11:29:16.861Z,13.29
2019-03-29T11:30:17.257Z,13.33
2019-03-29T11:31:17.224Z,13.42
2019-03-29T11:32:16.552Z,13.46
2019-03-29T11:33:16.882Z,13.58
2019-03-29T11:34:17.212Z,13.33
2019-03-29T11:35:17.174Z,13.36
2019-03-29T11:36:16.472Z,13.60
2019-03-29T11:37:16.758Z,13.65
2019-03-29T11:38:17.035Z,13.63
2019-03-29T11:39:16.377Z,13.71
2019-03-29T11:40:16.701Z,13.36
2019-03-29T11:41:16.730Z,13.78
2019-03-29T11:42:17.047Z,13.67
2019-03-29T11:43:26.308Z,13.94
2019-03-29T11:44:16.746Z,13.98
2019-03-29T11:45:17.024Z,14.16
2019-03-29T11:46:16.303Z,14.09
2019-03-29T11:47:16.584Z,13.87
2019-03-29T11:48:16.869Z,13.49
2019-03-29T11:49:17.146Z,13.44
2019-03-29T11:50:16.461Z,13.54
2019-03-29T11:51:19.436Z,13.61
2019-03-29T11:52:16.477Z,13.36
2019-03-29T11:53:16.782Z,13.29
2019-03-29T11:54:17.106Z,13.51
2019-03-29T11:55:16.404Z,13.57
2019-03-29T11:56:16.708Z,13.87
2019-03-29T11:57:17.018Z,14.13
2019-03-29T11:58:16.323Z,14.23
2019-03-29T11:59:16.631Z,14.30
2019-03-29T12:00:16.946Z,14.43
2019-03-29T12:01:17.022Z,14.35
2019-03-29T12:02:30.113Z,14.16
2019-03-29T12:03:16.961Z,14.39
2019-03-29T12:04:16.282Z,14.40
2019-03-29T12:05:16.594Z,14.64
2019-03-29T12:06:16.869Z,14.64
2019-03-29T12:07:17.174Z,14.85
2019-03-29T12:08:16.456Z,14.62
2019-03-29T12:09:16.785Z,14.36
2019-03-29T12:10:17.088Z,14.08
2019-03-29T12:11:17.142Z,14.22
2019-03-29T12:12:16.459Z,14.30
2019-03-29T12:13:16.780Z,14.46
2019-03-29T12:14:17.079Z,14.36
2019-03-29T12:15:16.391Z,14.22
2019-03-29T12:16:16.698Z,14.23
2019-03-29T12:17:16.978Z,14.18
2019-03-29T12:18:16.334Z,13.90
2019-03-29T12:19:16.673Z,14.12
2019-03-29T12:20:16.971Z,14.15
2019-03-29T12:21:17.023Z,14.33
2019-03-29T12:22:16.351Z,14.70
2019-03-29T12:23:16.641Z,14.73
2019-03-29T12:24:16.933Z,14.63
2019-03-29T12:25:16.254Z,14.56
2019-03-29T12:26:16.534Z,14.56
2019-03-29T12:27:16.880Z,14.76
2019-03-29T12:28:17.185Z,14.77
2019-03-29T12:29:16.500Z,14.44
2019-03-29T12:30:30.429Z,14.30
2019-03-29T12:31:16.823Z,14.56
2019-03-29T12:32:17.178Z,14.87
2019-03-29T12:33:16.488Z,14.88
2019-03-29T12:34:16.804Z,14.90
2019-03-29T12:35:17.102Z,14.73
2019-03-29T12:36:16.410Z,14.66
2019-03-29T12:37:16.728Z,14.65
2019-03-29T12:38:17.039Z,14.66
2019-03-29T12:39:16.344Z,14.82
2019-03-29T12:40:16.665Z,14.41
2019-03-29T12:41:16.728Z,14.36
2019-03-29T12:42:17.012Z,14.44
2019-03-29T12:43:16.296Z,14.63
2019-03-29T12:44:16.562Z,14.55
2019-03-29T12:45:16.875Z,14.33
2019-03-29T12:46:17.196Z,14.25
2019-03-29T12:47:16.475Z,14.37
2019-03-29T12:48:16.796Z,14.46
2019-03-29T12:49:17.117Z,14.78
2019-03-29T12:50:16.411Z,14.91
2019-03-29T12:51:16.485Z,14.84
2019-03-29T12:52:16.777Z,14.90
2019-03-29T12:53:17.087Z,14.88
2019-03-29T12:54:16.396Z,14.91
2019-03-29T12:55:16.665Z,14.79
2019-03-29T12:56:16.944Z,14.87
2019-03-29T12:57:16.222Z,14.91
2019-03-29T12:58:16.523Z,15.04
2019-03-29T12:59:16.824Z,14.86
2019-03-29T13:00:17.139Z,14.91
2019-03-29T13:01:17.206Z,14.88
2019-03-29T13:02:16.547Z,14.90
2019-03-29T13:03:16.865Z,14.90
2019-03-29T13:04:17.172Z,14.83
2019-03-29T13:05:16.505Z,14.88
2019-03-29T13:06:16.795Z,14.88
2019-03-29T13:07:17.099Z,14.77